Ashland, Montana
Current Conditions -  °F | °C
As of 12:53 PM on Monday 24 Nov 2014 (Local Time) from KMLS Reporting Station
Overcast Overcast  
Wind Chill: 28°   Ceiling: 8500
Heat Index: 37°   Visibility: 10mi
Dew Point: 28°   Wind: 16mph
Humidity: 70%   Direction: 290°WNW
Pressure: 30.02"   Gusts: 22mph
Location:  45.62°N, 106.31°W
Report Text: KMLS 241953Z AUTO 29014G19KT 10SM SCT026 BKN085 OVC110 03/M02 A3002 RMK AO2 SLP193 T00281022
Loading
Personal Weather Stations






























Interactive Weather Map New forecast layout! Learn more

10-Day Weather Forecast

Advertisements
Track Severe Weather on mobile